sensor_id;sensor_type;location;lat;lon;timestamp;P1;durP1;ratioP1;P2;durP2;ratioP2
5867;SDS011;2960;49.142;7.768;2024-03-06T00:00:52;8.20;;;2.60;;
5867;SDS011;2960;49.142;7.768;2024-03-06T00:03:19;8.57;;;2.83;;
5867;SDS011;2960;49.142;7.768;2024-03-06T00:05:47;8.40;;;2.50;;
5867;SDS011;2960;49.142;7.768;2024-03-06T00:08:16;8.23;;;2.60;;
5867;SDS011;2960;49.142;7.768;2024-03-06T00:10:45;8.20;;;2.50;;
5867;SDS011;2960;49.142;7.768;2024-03-06T00:13:12;8.10;;;2.40;;
5867;SDS011;2960;49.142;7.768;2024-03-06T00:15:40;9.73;;;2.80;;
5867;SDS011;2960;49.142;7.768;2024-03-06T00:18:07;8.60;;;2.80;;
5867;SDS011;2960;49.142;7.768;2024-03-06T00:20:35;8.03;;;2.40;;
5867;SDS011;2960;49.142;7.768;2024-03-06T00:23:02;8.57;;;2.70;;
5867;SDS011;2960;49.142;7.768;2024-03-06T00:25:31;8.53;;;2.73;;
5867;SDS011;2960;49.142;7.768;2024-03-06T00:27:59;8.90;;;2.90;;
5867;SDS011;2960;49.142;7.768;2024-03-06T00:30:26;8.60;;;2.80;;
5867;SDS011;2960;49.142;7.768;2024-03-06T00:32:56;8.40;;;2.57;;
5867;SDS011;2960;49.142;7.768;2024-03-06T00:35:23;8.50;;;2.90;;
5867;SDS011;2960;49.142;7.768;2024-03-06T00:37:51;8.20;;;2.57;;
5867;SDS011;2960;49.142;7.768;2024-03-06T00:40:19;8.77;;;2.57;;
5867;SDS011;2960;49.142;7.768;2024-03-06T00:42:47;8.60;;;2.80;;
5867;SDS011;2960;49.142;7.768;2024-03-06T00:45:15;8.63;;;2.53;;
5867;SDS011;2960;49.142;7.768;2024-03-06T00:47:42;8.27;;;2.83;;
5867;SDS011;2960;49.142;7.768;2024-03-06T00:50:09;8.20;;;2.77;;
5867;SDS011;2960;49.142;7.768;2024-03-06T00:52:36;8.50;;;2.50;;
5867;SDS011;2960;49.142;7.768;2024-03-06T00:55:03;8.80;;;2.83;;
5867;SDS011;2960;49.142;7.768;2024-03-06T00:57:31;8.47;;;2.60;;
5867;SDS011;2960;49.142;7.768;2024-03-06T01:00:00;9.73;;;2.87;;
5867;SDS011;2960;49.142;7.768;2024-03-06T01:02:31;8.40;;;2.90;;
5867;SDS011;2960;49.142;7.768;2024-03-06T01:04:58;8.30;;;2.80;;
5867;SDS011;2960;49.142;7.768;2024-03-06T01:07:25;8.50;;;2.90;;
5867;SDS011;2960;49.142;7.768;2024-03-06T01:09:52;8.93;;;3.27;;
5867;SDS011;2960;49.142;7.768;2024-03-06T01:12:22;9.20;;;3.00;;
5867;SDS011;2960;49.142;7.768;2024-03-06T01:14:49;8.20;;;2.60;;
5867;SDS011;2960;49.142;7.768;2024-03-06T01:17:18;8.50;;;2.73;;
5867;SDS011;2960;49.142;7.768;2024-03-06T01:19:45;8.60;;;2.83;;
5867;SDS011;2960;49.142;7.768;2024-03-06T01:22:12;8.70;;;2.67;;
5867;SDS011;2960;49.142;7.768;2024-03-06T01:24:39;8.20;;;2.73;;
5867;SDS011;2960;49.142;7.768;2024-03-06T01:27:06;8.67;;;3.00;;
5867;SDS011;2960;49.142;7.768;2024-03-06T01:29:34;8.30;;;2.70;;
5867;SDS011;2960;49.142;7.768;2024-03-06T01:32:01;8.57;;;2.60;;
5867;SDS011;2960;49.142;7.768;2024-03-06T01:34:32;12.47;;;3.30;;
5867;SDS011;2960;49.142;7.768;2024-03-06T01:36:59;8.90;;;2.77;;
5867;SDS011;2960;49.142;7.768;2024-03-06T01:39:26;9.80;;;2.70;;
5867;SDS011;2960;49.142;7.768;2024-03-06T01:41:53;8.50;;;2.77;;
5867;SDS011;2960;49.142;7.768;2024-03-06T01:44:20;8.97;;;2.77;;
5867;SDS011;2960;49.142;7.768;2024-03-06T01:46:47;9.67;;;2.73;;
5867;SDS011;2960;49.142;7.768;2024-03-06T01:49:14;8.40;;;2.50;;
5867;SDS011;2960;49.142;7.768;2024-03-06T01:51:45;8.40;;;2.80;;
5867;SDS011;2960;49.142;7.768;2024-03-06T01:54:16;8.50;;;2.70;;
5867;SDS011;2960;49.142;7.768;2024-03-06T01:56:45;8.60;;;2.93;;
5867;SDS011;2960;49.142;7.768;2024-03-06T01:59:14;9.07;;;2.90;;
5867;SDS011;2960;49.142;7.768;2024-03-06T02:01:43;8.30;;;2.50;;
5867;SDS011;2960;49.142;7.768;2024-03-06T02:04:10;8.40;;;2.90;;
5867;SDS011;2960;49.142;7.768;2024-03-06T02:06:40;8.53;;;2.60;;
5867;SDS011;2960;49.142;7.768;2024-03-06T02:09:09;9.37;;;2.90;;
5867;SDS011;2960;49.142;7.768;2024-03-06T02:11:37;8.73;;;2.97;;
5867;SDS011;2960;49.142;7.768;2024-03-06T02:14:04;9.33;;;2.80;;
5867;SDS011;2960;49.142;7.768;2024-03-06T02:16:34;8.40;;;2.60;;
5867;SDS011;2960;49.142;7.768;2024-03-06T02:19:04;8.80;;;2.83;;
5867;SDS011;2960;49.142;7.768;2024-03-06T02:21:33;9.50;;;2.90;;
5867;SDS011;2960;49.142;7.768;2024-03-06T02:24:00;7.80;;;2.23;;
5867;SDS011;2960;49.142;7.768;2024-03-06T02:26:28;8.60;;;2.83;;
5867;SDS011;2960;49.142;7.768;2024-03-06T02:28:55;8.80;;;3.00;;
5867;SDS011;2960;49.142;7.768;2024-03-06T02:31:22;8.47;;;2.73;;
5867;SDS011;2960;49.142;7.768;2024-03-06T02:33:49;8.23;;;2.80;;
5867;SDS011;2960;49.142;7.768;2024-03-06T02:36:19;8.93;;;2.67;;
5867;SDS011;2960;49.142;7.768;2024-03-06T02:38:50;8.43;;;2.60;;
5867;SDS011;2960;49.142;7.768;2024-03-06T02:41:17;8.50;;;2.80;;
5867;SDS011;2960;49.142;7.768;2024-03-06T02:43:45;8.70;;;2.50;;
5867;SDS011;2960;49.142;7.768;2024-03-06T02:46:12;9.00;;;2.90;;
5867;SDS011;2960;49.142;7.768;2024-03-06T02:48:39;8.70;;;2.77;;
5867;SDS011;2960;49.142;7.768;2024-03-06T02:51:06;8.50;;;3.00;;
5867;SDS011;2960;49.142;7.768;2024-03-06T02:53:33;8.73;;;2.73;;
5867;SDS011;2960;49.142;7.768;2024-03-06T02:56:02;8.30;;;2.50;;
5867;SDS011;2960;49.142;7.768;2024-03-06T02:58:30;9.20;;;3.00;;
5867;SDS011;2960;49.142;7.768;2024-03-06T03:00:57;8.90;;;2.90;;
5867;SDS011;2960;49.142;7.768;2024-03-06T03:03:24;8.57;;;2.93;;
5867;SDS011;2960;49.142;7.768;2024-03-06T03:05:51;8.80;;;2.97;;
5867;SDS011;2960;49.142;7.768;2024-03-06T03:08:18;8.10;;;2.50;;
5867;SDS011;2960;49.142;7.768;2024-03-06T03:10:45;8.30;;;2.43;;
5867;SDS011;2960;49.142;7.768;2024-03-06T03:13:14;8.50;;;2.40;;
5867;SDS011;2960;49.142;7.768;2024-03-06T03:15:41;8.20;;;2.60;;
5867;SDS011;2960;49.142;7.768;2024-03-06T03:18:09;8.50;;;2.60;;
5867;SDS011;2960;49.142;7.768;2024-03-06T03:20:38;8.23;;;2.57;;
5867;SDS011;2960;49.142;7.768;2024-03-06T03:23:05;7.93;;;2.33;;
5867;SDS011;2960;49.142;7.768;2024-03-06T03:25:36;9.03;;;3.10;;
5867;SDS011;2960;49.142;7.768;2024-03-06T03:28:04;8.47;;;2.60;;
5867;SDS011;2960;49.142;7.768;2024-03-06T03:30:33;9.40;;;2.90;;
5867;SDS011;2960;49.142;7.768;2024-03-06T03:33:00;8.23;;;2.50;;
5867;SDS011;2960;49.142;7.768;2024-03-06T03:35:27;9.27;;;2.60;;
5867;SDS011;2960;49.142;7.768;2024-03-06T03:37:57;8.00;;;2.40;;
5867;SDS011;2960;49.142;7.768;2024-03-06T03:40:26;9.67;;;2.50;;
5867;SDS011;2960;49.142;7.768;2024-03-06T03:42:53;8.10;;;2.40;;
5867;SDS011;2960;49.142;7.768;2024-03-06T03:45:20;8.10;;;2.60;;
5867;SDS011;2960;49.142;7.768;2024-03-06T03:47:49;8.40;;;2.77;;
5867;SDS011;2960;49.142;7.768;2024-03-06T03:50:16;8.20;;;2.60;;
5867;SDS011;2960;49.142;7.768;2024-03-06T03:52:43;8.50;;;2.30;;
5867;SDS011;2960;49.142;7.768;2024-03-06T03:55:10;8.37;;;2.30;;
5867;SDS011;2960;49.142;7.768;2024-03-06T03:57:37;8.73;;;2.60;;
5867;SDS011;2960;49.142;7.768;2024-03-06T04:00:05;8.73;;;2.57;;
5867;SDS011;2960;49.142;7.768;2024-03-06T04:02:36;8.70;;;2.80;;
5867;SDS011;2960;49.142;7.768;2024-03-06T04:05:05;8.17;;;2.50;;
5867;SDS011;2960;49.142;7.768;2024-03-06T04:07:34;8.57;;;2.10;;
5867;SDS011;2960;49.142;7.768;2024-03-06T04:10:02;8.10;;;2.30;;
5867;SDS011;2960;49.142;7.768;2024-03-06T04:12:30;8.20;;;2.43;;
5867;SDS011;2960;49.142;7.768;2024-03-06T04:14:57;8.53;;;2.40;;
5867;SDS011;2960;49.142;7.768;2024-03-06T04:17:24;8.30;;;2.47;;
5867;SDS011;2960;49.142;7.768;2024-03-06T04:19:51;8.50;;;2.57;;
5867;SDS011;2960;49.142;7.768;2024-03-06T04:22:21;8.30;;;2.30;;
5867;SDS011;2960;49.142;7.768;2024-03-06T04:24:48;8.50;;;2.40;;
5867;SDS011;2960;49.142;7.768;2024-03-06T04:27:16;7.90;;;2.20;;
5867;SDS011;2960;49.142;7.768;2024-03-06T04:29:43;8.30;;;2.60;;
5867;SDS011;2960;49.142;7.768;2024-03-06T04:32:10;9.47;;;2.37;;
5867;SDS011;2960;49.142;7.768;2024-03-06T04:34:37;8.60;;;2.70;;
5867;SDS011;2960;49.142;7.768;2024-03-06T04:37:04;8.27;;;2.53;;
5867;SDS011;2960;49.142;7.768;2024-03-06T04:39:33;8.23;;;2.13;;
5867;SDS011;2960;49.142;7.768;2024-03-06T04:42:00;10.20;;;2.60;;
5867;SDS011;2960;49.142;7.768;2024-03-06T04:44:27;9.10;;;2.50;;
5867;SDS011;2960;49.142;7.768;2024-03-06T04:46:55;8.70;;;2.40;;
5867;SDS011;2960;49.142;7.768;2024-03-06T04:49:22;8.37;;;2.30;;
5867;SDS011;2960;49.142;7.768;2024-03-06T04:51:49;8.20;;;2.30;;
5867;SDS011;2960;49.142;7.768;2024-03-06T04:54:16;9.07;;;2.27;;
5867;SDS011;2960;49.142;7.768;2024-03-06T04:56:45;8.00;;;2.30;;
5867;SDS011;2960;49.142;7.768;2024-03-06T04:59:12;8.00;;;2.27;;
5867;SDS011;2960;49.142;7.768;2024-03-06T05:01:40;8.97;;;2.30;;
5867;SDS011;2960;49.142;7.768;2024-03-06T05:04:08;8.20;;;2.00;;
5867;SDS011;2960;49.142;7.768;2024-03-06T05:06:36;8.20;;;2.40;;
5867;SDS011;2960;49.142;7.768;2024-03-06T05:09:03;8.50;;;2.40;;
5867;SDS011;2960;49.142;7.768;2024-03-06T05:11:31;8.17;;;2.40;;
5867;SDS011;2960;49.142;7.768;2024-03-06T05:13:59;8.00;;;2.10;;
5867;SDS011;2960;49.142;7.768;2024-03-06T05:16:28;7.90;;;2.10;;
5867;SDS011;2960;49.142;7.768;2024-03-06T05:18:55;7.77;;;2.03;;
5867;SDS011;2960;49.142;7.768;2024-03-06T05:21:22;7.97;;;2.10;;
5867;SDS011;2960;49.142;7.768;2024-03-06T05:23:49;8.00;;;2.10;;
5867;SDS011;2960;49.142;7.768;2024-03-06T05:26:17;8.53;;;2.00;;
5867;SDS011;2960;49.142;7.768;2024-03-06T05:28:44;7.70;;;2.10;;
5867;SDS011;2960;49.142;7.768;2024-03-06T05:31:19;9.33;;;2.40;;
5867;SDS011;2960;49.142;7.768;2024-03-06T05:33:48;8.10;;;2.30;;
5867;SDS011;2960;49.142;7.768;2024-03-06T05:36:15;9.30;;;2.40;;
5867;SDS011;2960;49.142;7.768;2024-03-06T05:38:43;7.83;;;2.10;;
5867;SDS011;2960;49.142;7.768;2024-03-06T05:41:10;7.80;;;1.90;;
5867;SDS011;2960;49.142;7.768;2024-03-06T05:43:37;7.90;;;1.90;;
5867;SDS011;2960;49.142;7.768;2024-03-06T05:46:07;8.90;;;2.00;;
5867;SDS011;2960;49.142;7.768;2024-03-06T05:48:36;7.60;;;2.13;;
5867;SDS011;2960;49.142;7.768;2024-03-06T05:51:03;9.10;;;2.60;;
5867;SDS011;2960;49.142;7.768;2024-03-06T05:53:35;7.87;;;2.10;;
5867;SDS011;2960;49.142;7.768;2024-03-06T05:56:06;8.30;;;2.30;;
5867;SDS011;2960;49.142;7.768;2024-03-06T05:58:33;7.53;;;2.10;;
5867;SDS011;2960;49.142;7.768;2024-03-06T06:01:01;7.90;;;2.30;;
5867;SDS011;2960;49.142;7.768;2024-03-06T06:03:28;9.73;;;2.67;;
5867;SDS011;2960;49.142;7.768;2024-03-06T06:05:57;8.23;;;2.33;;
5867;SDS011;2960;49.142;7.768;2024-03-06T06:08:24;8.10;;;2.33;;
5867;SDS011;2960;49.142;7.768;2024-03-06T06:10:52;8.53;;;2.70;;
5867;SDS011;2960;49.142;7.768;2024-03-06T06:13:20;8.70;;;2.40;;
5867;SDS011;2960;49.142;7.768;2024-03-06T06:15:48;7.60;;;2.10;;
5867;SDS011;2960;49.142;7.768;2024-03-06T06:18:15;8.40;;;2.00;;
5867;SDS011;2960;49.142;7.768;2024-03-06T06:20:42;7.80;;;2.00;;
5867;SDS011;2960;49.142;7.768;2024-03-06T06:23:11;8.30;;;2.57;;
5867;SDS011;2960;49.142;7.768;2024-03-06T06:25:38;8.47;;;2.30;;
5867;SDS011;2960;49.142;7.768;2024-03-06T06:28:05;8.33;;;2.10;;
5867;SDS011;2960;49.142;7.768;2024-03-06T06:30:32;8.33;;;2.23;;
5867;SDS011;2960;49.142;7.768;2024-03-06T06:33:00;7.80;;;2.20;;
5867;SDS011;2960;49.142;7.768;2024-03-06T06:35:28;8.40;;;2.00;;
5867;SDS011;2960;49.142;7.768;2024-03-06T06:37:55;8.10;;;2.20;;
5867;SDS011;2960;49.142;7.768;2024-03-06T06:40:23;8.40;;;2.20;;
5867;SDS011;2960;49.142;7.768;2024-03-06T06:42:50;7.87;;;2.30;;
5867;SDS011;2960;49.142;7.768;2024-03-06T06:45:20;8.03;;;2.20;;
5867;SDS011;2960;49.142;7.768;2024-03-06T06:47:48;8.30;;;2.43;;
5867;SDS011;2960;49.142;7.768;2024-03-06T06:50:17;8.67;;;2.23;;
5867;SDS011;2960;49.142;7.768;2024-03-06T06:52:47;8.20;;;2.33;;
5867;SDS011;2960;49.142;7.768;2024-03-06T06:55:14;8.10;;;2.30;;
5867;SDS011;2960;49.142;7.768;2024-03-06T06:57:42;7.77;;;2.13;;
5867;SDS011;2960;49.142;7.768;2024-03-06T07:00:10;8.60;;;2.60;;
5867;SDS011;2960;49.142;7.768;2024-03-06T07:02:38;8.80;;;2.40;;
5867;SDS011;2960;49.142;7.768;2024-03-06T07:05:06;8.17;;;2.13;;
5867;SDS011;2960;49.142;7.768;2024-03-06T07:07:34;8.30;;;2.30;;
5867;SDS011;2960;49.142;7.768;2024-03-06T07:10:01;8.30;;;2.37;;
5867;SDS011;2960;49.142;7.768;2024-03-06T07:12:29;8.70;;;2.50;;
5867;SDS011;2960;49.142;7.768;2024-03-06T07:14:58;7.90;;;2.40;;
5867;SDS011;2960;49.142;7.768;2024-03-06T07:17:26;8.40;;;2.40;;
5867;SDS011;2960;49.142;7.768;2024-03-06T07:19:53;7.70;;;2.23;;
5867;SDS011;2960;49.142;7.768;2024-03-06T07:22:21;8.10;;;2.30;;
5867;SDS011;2960;49.142;7.768;2024-03-06T07:24:48;8.43;;;2.30;;
5867;SDS011;2960;49.142;7.768;2024-03-06T07:27:15;7.67;;;2.17;;
5867;SDS011;2960;49.142;7.768;2024-03-06T07:29:43;8.10;;;2.30;;
5867;SDS011;2960;49.142;7.768;2024-03-06T07:32:12;8.43;;;2.33;;
5867;SDS011;2960;49.142;7.768;2024-03-06T07:34:39;8.13;;;2.10;;
5867;SDS011;2960;49.142;7.768;2024-03-06T07:37:06;8.07;;;2.40;;
5867;SDS011;2960;49.142;7.768;2024-03-06T07:39:33;8.20;;;2.23;;
5867;SDS011;2960;49.142;7.768;2024-03-06T07:42:00;8.57;;;2.33;;
5867;SDS011;2960;49.142;7.768;2024-03-06T07:44:28;8.00;;;2.37;;
5867;SDS011;2960;49.142;7.768;2024-03-06T07:46:55;8.80;;;2.70;;
5867;SDS011;2960;49.142;7.768;2024-03-06T07:49:23;8.60;;;2.60;;
5867;SDS011;2960;49.142;7.768;2024-03-06T07:51:50;8.30;;;2.50;;
5867;SDS011;2960;49.142;7.768;2024-03-06T07:54:18;8.63;;;2.60;;
5867;SDS011;2960;49.142;7.768;2024-03-06T07:56:46;9.13;;;2.50;;
5867;SDS011;2960;49.142;7.768;2024-03-06T07:59:14;8.17;;;2.60;;
5867;SDS011;2960;49.142;7.768;2024-03-06T08:01:43;9.50;;;2.50;;
5867;SDS011;2960;49.142;7.768;2024-03-06T08:04:13;8.97;;;2.80;;
5867;SDS011;2960;49.142;7.768;2024-03-06T08:06:41;9.60;;;3.23;;
5867;SDS011;2960;49.142;7.768;2024-03-06T08:09:08;9.17;;;3.27;;
5867;SDS011;2960;49.142;7.768;2024-03-06T08:11:36;9.20;;;3.17;;
5867;SDS011;2960;49.142;7.768;2024-03-06T08:14:03;8.77;;;3.00;;
5867;SDS011;2960;49.142;7.768;2024-03-06T08:16:32;8.77;;;2.97;;
5867;SDS011;2960;49.142;7.768;2024-03-06T08:18:59;9.50;;;3.13;;
5867;SDS011;2960;49.142;7.768;2024-03-06T08:21:26;8.20;;;2.60;;
5867;SDS011;2960;49.142;7.768;2024-03-06T08:23:55;9.10;;;2.80;;
5867;SDS011;2960;49.142;7.768;2024-03-06T08:26:22;8.23;;;2.90;;
5867;SDS011;2960;49.142;7.768;2024-03-06T08:28:49;8.37;;;2.87;;
5867;SDS011;2960;49.142;7.768;2024-03-06T08:31:17;8.33;;;2.70;;
5867;SDS011;2960;49.142;7.768;2024-03-06T08:33:44;8.40;;;2.73;;
5867;SDS011;2960;49.142;7.768;2024-03-06T08:36:11;9.27;;;2.87;;
5867;SDS011;2960;49.142;7.768;2024-03-06T08:38:38;9.20;;;3.10;;
5867;SDS011;2960;49.142;7.768;2024-03-06T08:41:08;9.63;;;3.17;;
5867;SDS011;2960;49.142;7.768;2024-03-06T08:43:35;8.63;;;2.73;;
5867;SDS011;2960;49.142;7.768;2024-03-06T08:46:01;9.67;;;3.10;;
5867;SDS011;2960;49.142;7.768;2024-03-06T08:48:29;8.70;;;3.00;;
5867;SDS011;2960;49.142;7.768;2024-03-06T08:50:56;9.37;;;2.80;;
5867;SDS011;2960;49.142;7.768;2024-03-06T08:53:23;9.10;;;3.20;;
5867;SDS011;2960;49.142;7.768;2024-03-06T08:55:51;9.60;;;3.00;;
5867;SDS011;2960;49.142;7.768;2024-03-06T08:58:19;8.87;;;2.90;;
5867;SDS011;2960;49.142;7.768;2024-03-06T09:00:47;9.07;;;2.97;;
5867;SDS011;2960;49.142;7.768;2024-03-06T09:03:14;8.63;;;2.70;;
5867;SDS011;2960;49.142;7.768;2024-03-06T09:05:41;8.93;;;2.93;;
5867;SDS011;2960;49.142;7.768;2024-03-06T09:08:09;8.67;;;2.97;;
5867;SDS011;2960;49.142;7.768;2024-03-06T09:10:37;9.00;;;3.00;;
5867;SDS011;2960;49.142;7.768;2024-03-06T09:13:04;9.20;;;3.23;;
5867;SDS011;2960;49.142;7.768;2024-03-06T09:15:33;11.23;;;3.30;;
5867;SDS011;2960;49.142;7.768;2024-03-06T09:18:00;9.10;;;3.03;;
5867;SDS011;2960;49.142;7.768;2024-03-06T09:20:28;9.60;;;3.30;;
5867;SDS011;2960;49.142;7.768;2024-03-06T09:22:56;10.37;;;3.63;;
5867;SDS011;2960;49.142;7.768;2024-03-06T09:25:25;9.83;;;3.70;;
5867;SDS011;2960;49.142;7.768;2024-03-06T09:27:52;9.50;;;3.40;;
5867;SDS011;2960;49.142;7.768;2024-03-06T09:30:19;9.50;;;3.30;;
5867;SDS011;2960;49.142;7.768;2024-03-06T09:32:48;9.43;;;3.60;;
5867;SDS011;2960;49.142;7.768;2024-03-06T09:35:15;9.90;;;3.43;;
5867;SDS011;2960;49.142;7.768;2024-03-06T09:37:44;9.73;;;3.70;;
5867;SDS011;2960;49.142;7.768;2024-03-06T09:40:16;9.70;;;3.47;;
5867;SDS011;2960;49.142;7.768;2024-03-06T09:42:47;9.90;;;3.40;;
5867;SDS011;2960;49.142;7.768;2024-03-06T09:45:15;9.50;;;3.37;;
5867;SDS011;2960;49.142;7.768;2024-03-06T09:47:44;9.80;;;3.50;;
5867;SDS011;2960;49.142;7.768;2024-03-06T09:50:17;9.70;;;3.70;;
5867;SDS011;2960;49.142;7.768;2024-03-06T09:52:47;12.03;;;3.90;;
5867;SDS011;2960;49.142;7.768;2024-03-06T09:55:17;11.27;;;4.10;;
5867;SDS011;2960;49.142;7.768;2024-03-06T09:57:44;11.23;;;4.00;;
5867;SDS011;2960;49.142;7.768;2024-03-06T10:00:13;10.67;;;3.83;;
5867;SDS011;2960;49.142;7.768;2024-03-06T10:02:41;10.10;;;3.80;;
5867;SDS011;2960;49.142;7.768;2024-03-06T10:05:21;10.30;;;3.80;;
5867;SDS011;2960;49.142;7.768;2024-03-06T10:07:50;9.60;;;3.60;;
5867;SDS011;2960;49.142;7.768;2024-03-06T10:10:18;11.10;;;4.23;;
5867;SDS011;2960;49.142;7.768;2024-03-06T10:12:47;10.20;;;3.97;;
5867;SDS011;2960;49.142;7.768;2024-03-06T10:15:15;11.80;;;4.13;;
5867;SDS011;2960;49.142;7.768;2024-03-06T10:17:42;10.00;;;3.90;;
5867;SDS011;2960;49.142;7.768;2024-03-06T10:20:21;9.70;;;3.57;;
5867;SDS011;2960;49.142;7.768;2024-03-06T10:22:50;9.63;;;3.40;;
5867;SDS011;2960;49.142;7.768;2024-03-06T10:25:18;10.27;;;3.90;;
5867;SDS011;2960;49.142;7.768;2024-03-06T10:27:47;10.70;;;4.30;;
5867;SDS011;2960;49.142;7.768;2024-03-06T10:30:34;10.60;;;3.90;;
5867;SDS011;2960;49.142;7.768;2024-03-06T10:33:03;10.13;;;3.50;;
5867;SDS011;2960;49.142;7.768;2024-03-06T10:35:32;10.63;;;3.53;;
5867;SDS011;2960;49.142;7.768;2024-03-06T10:38:00;10.50;;;3.70;;
5867;SDS011;2960;49.142;7.768;2024-03-06T10:40:27;10.47;;;3.90;;
5867;SDS011;2960;49.142;7.768;2024-03-06T10:42:58;11.17;;;4.00;;
5867;SDS011;2960;49.142;7.768;2024-03-06T10:45:27;11.10;;;4.27;;
5867;SDS011;2960;49.142;7.768;2024-03-06T10:48:08;11.23;;;4.20;;
5867;SDS011;2960;49.142;7.768;2024-03-06T10:50:38;10.83;;;4.10;;
5867;SDS011;2960;49.142;7.768;2024-03-06T10:53:08;11.33;;;4.57;;
5867;SDS011;2960;49.142;7.768;2024-03-06T10:55:36;11.23;;;4.30;;
5867;SDS011;2960;49.142;7.768;2024-03-06T10:58:04;10.77;;;3.83;;
5867;SDS011;2960;49.142;7.768;2024-03-06T11:00:34;11.17;;;4.60;;
5867;SDS011;2960;49.142;7.768;2024-03-06T11:03:04;11.67;;;4.47;;
5867;SDS011;2960;49.142;7.768;2024-03-06T11:05:34;10.57;;;4.03;;
5867;SDS011;2960;49.142;7.768;2024-03-06T11:08:05;11.60;;;4.63;;
5867;SDS011;2960;49.142;7.768;2024-03-06T11:10:34;10.90;;;4.30;;
5867;SDS011;2960;49.142;7.768;2024-03-06T11:13:07;11.03;;;4.33;;
5867;SDS011;2960;49.142;7.768;2024-03-06T11:15:47;11.10;;;4.13;;
5867;SDS011;2960;49.142;7.768;2024-03-06T11:21:28;11.63;;;3.93;;
5867;SDS011;2960;49.142;7.768;2024-03-06T11:24:13;10.50;;;3.90;;
5867;SDS011;2960;49.142;7.768;2024-03-06T11:26:48;11.53;;;4.00;;
5867;SDS011;2960;49.142;7.768;2024-03-06T11:29:19;12.77;;;4.13;;
5867;SDS011;2960;49.142;7.768;2024-03-06T11:34:38;10.40;;;3.90;;
5867;SDS011;2960;49.142;7.768;2024-03-06T11:37:05;10.80;;;3.97;;
5867;SDS011;2960;49.142;7.768;2024-03-06T11:39:37;10.57;;;4.23;;
5867;SDS011;2960;49.142;7.768;2024-03-06T11:42:06;10.20;;;3.80;;
5867;SDS011;2960;49.142;7.768;2024-03-06T11:44:34;10.70;;;4.23;;
5867;SDS011;2960;49.142;7.768;2024-03-06T11:47:02;10.80;;;3.70;;
5867;SDS011;2960;49.142;7.768;2024-03-06T11:49:34;10.03;;;3.67;;
5867;SDS011;2960;49.142;7.768;2024-03-06T11:52:03;10.10;;;3.70;;
5867;SDS011;2960;49.142;7.768;2024-03-06T11:54:33;9.97;;;3.97;;
5867;SDS011;2960;49.142;7.768;2024-03-06T11:57:02;10.30;;;3.83;;
5867;SDS011;2960;49.142;7.768;2024-03-06T11:59:31;10.40;;;3.70;;
5867;SDS011;2960;49.142;7.768;2024-03-06T12:02:00;9.73;;;3.63;;
5867;SDS011;2960;49.142;7.768;2024-03-06T12:04:30;10.53;;;3.87;;
5867;SDS011;2960;49.142;7.768;2024-03-06T12:07:01;10.30;;;4.03;;
5867;SDS011;2960;49.142;7.768;2024-03-06T12:09:30;10.03;;;3.90;;
5867;SDS011;2960;49.142;7.768;2024-03-06T12:11:59;9.77;;;3.70;;
5867;SDS011;2960;49.142;7.768;2024-03-06T12:14:28;10.30;;;4.00;;
5867;SDS011;2960;49.142;7.768;2024-03-06T12:16:56;10.00;;;3.50;;
5867;SDS011;2960;49.142;7.768;2024-03-06T12:19:25;11.17;;;3.67;;
5867;SDS011;2960;49.142;7.768;2024-03-06T12:21:55;9.60;;;3.30;;
5867;SDS011;2960;49.142;7.768;2024-03-06T12:24:25;9.60;;;3.33;;
5867;SDS011;2960;49.142;7.768;2024-03-06T12:26:58;9.47;;;3.40;;
5867;SDS011;2960;49.142;7.768;2024-03-06T12:29:29;9.70;;;3.80;;
5867;SDS011;2960;49.142;7.768;2024-03-06T12:31:57;11.17;;;3.90;;
5867;SDS011;2960;49.142;7.768;2024-03-06T12:34:25;9.63;;;3.70;;
5867;SDS011;2960;49.142;7.768;2024-03-06T12:36:52;9.90;;;3.40;;
5867;SDS011;2960;49.142;7.768;2024-03-06T12:39:19;10.70;;;3.47;;
5867;SDS011;2960;49.142;7.768;2024-03-06T12:41:48;10.57;;;3.70;;
5867;SDS011;2960;49.142;7.768;2024-03-06T12:44:16;10.00;;;3.77;;
5867;SDS011;2960;49.142;7.768;2024-03-06T12:46:45;14.83;;;3.53;;
5867;SDS011;2960;49.142;7.768;2024-03-06T12:49:14;9.70;;;3.63;;
5867;SDS011;2960;49.142;7.768;2024-03-06T12:51:43;10.97;;;4.10;;
5867;SDS011;2960;49.142;7.768;2024-03-06T12:54:10;12.00;;;3.53;;
5867;SDS011;2960;49.142;7.768;2024-03-06T12:56:38;9.60;;;3.60;;
5867;SDS011;2960;49.142;7.768;2024-03-06T12:59:06;9.33;;;3.40;;
5867;SDS011;2960;49.142;7.768;2024-03-06T13:01:35;11.43;;;4.17;;
5867;SDS011;2960;49.142;7.768;2024-03-06T13:04:04;9.60;;;3.57;;
5867;SDS011;2960;49.142;7.768;2024-03-06T13:06:32;9.40;;;3.70;;
5867;SDS011;2960;49.142;7.768;2024-03-06T13:09:00;10.80;;;3.63;;
5867;SDS011;2960;49.142;7.768;2024-03-06T13:11:27;10.00;;;3.90;;
5867;SDS011;2960;49.142;7.768;2024-03-06T13:13:54;9.60;;;3.90;;
5867;SDS011;2960;49.142;7.768;2024-03-06T13:16:21;9.10;;;3.40;;
5867;SDS011;2960;49.142;7.768;2024-03-06T13:18:48;9.40;;;3.57;;
5867;SDS011;2960;49.142;7.768;2024-03-06T13:21:19;10.00;;;3.80;;
5867;SDS011;2960;49.142;7.768;2024-03-06T13:23:46;9.70;;;3.97;;
5867;SDS011;2960;49.142;7.768;2024-03-06T13:26:14;9.40;;;3.87;;
5867;SDS011;2960;49.142;7.768;2024-03-06T13:28:43;9.37;;;3.80;;
5867;SDS011;2960;49.142;7.768;2024-03-06T13:31:09;9.47;;;4.00;;
5867;SDS011;2960;49.142;7.768;2024-03-06T13:33:36;9.37;;;3.60;;
5867;SDS011;2960;49.142;7.768;2024-03-06T13:36:03;9.30;;;3.50;;
5867;SDS011;2960;49.142;7.768;2024-03-06T13:38:33;9.27;;;3.50;;
5867;SDS011;2960;49.142;7.768;2024-03-06T13:41:00;9.17;;;3.30;;
5867;SDS011;2960;49.142;7.768;2024-03-06T13:43:27;8.97;;;3.27;;
5867;SDS011;2960;49.142;7.768;2024-03-06T13:45:54;9.80;;;3.63;;
5867;SDS011;2960;49.142;7.768;2024-03-06T13:48:22;9.97;;;3.60;;
5867;SDS011;2960;49.142;7.768;2024-03-06T13:50:49;9.03;;;3.30;;
5867;SDS011;2960;49.142;7.768;2024-03-06T13:53:16;9.53;;;3.60;;
5867;SDS011;2960;49.142;7.768;2024-03-06T13:55:45;9.50;;;3.37;;
5867;SDS011;2960;49.142;7.768;2024-03-06T13:58:12;9.23;;;3.43;;
5867;SDS011;2960;49.142;7.768;2024-03-06T14:00:39;9.17;;;3.00;;
5867;SDS011;2960;49.142;7.768;2024-03-06T14:03:06;9.23;;;3.30;;
5867;SDS011;2960;49.142;7.768;2024-03-06T14:05:34;9.30;;;3.20;;
5867;SDS011;2960;49.142;7.768;2024-03-06T14:08:01;9.60;;;3.60;;
5867;SDS011;2960;49.142;7.768;2024-03-06T14:10:28;9.30;;;3.30;;
5867;SDS011;2960;49.142;7.768;2024-03-06T14:13:00;9.00;;;3.07;;
5867;SDS011;2960;49.142;7.768;2024-03-06T14:15:27;9.17;;;3.40;;
5867;SDS011;2960;49.142;7.768;2024-03-06T14:17:54;9.10;;;3.47;;
5867;SDS011;2960;49.142;7.768;2024-03-06T14:20:21;9.23;;;3.67;;
5867;SDS011;2960;49.142;7.768;2024-03-06T14:22:49;9.40;;;3.40;;
5867;SDS011;2960;49.142;7.768;2024-03-06T14:25:17;9.20;;;3.40;;
5867;SDS011;2960;49.142;7.768;2024-03-06T14:27:44;9.30;;;3.30;;
5867;SDS011;2960;49.142;7.768;2024-03-06T14:30:13;9.90;;;3.20;;
5867;SDS011;2960;49.142;7.768;2024-03-06T14:32:41;8.67;;;2.80;;
5867;SDS011;2960;49.142;7.768;2024-03-06T14:35:08;8.97;;;3.20;;
5867;SDS011;2960;49.142;7.768;2024-03-06T14:37:36;10.30;;;3.40;;
5867;SDS011;2960;49.142;7.768;2024-03-06T14:40:04;9.33;;;3.30;;
5867;SDS011;2960;49.142;7.768;2024-03-06T14:42:33;9.70;;;3.70;;
5867;SDS011;2960;49.142;7.768;2024-03-06T14:45:01;9.37;;;3.37;;
5867;SDS011;2960;49.142;7.768;2024-03-06T14:47:32;10.77;;;3.70;;
5867;SDS011;2960;49.142;7.768;2024-03-06T14:49:59;10.90;;;3.60;;
5867;SDS011;2960;49.142;7.768;2024-03-06T14:52:27;9.60;;;3.40;;
5867;SDS011;2960;49.142;7.768;2024-03-06T14:54:54;9.60;;;3.60;;
5867;SDS011;2960;49.142;7.768;2024-03-06T14:57:21;10.07;;;3.47;;
5867;SDS011;2960;49.142;7.768;2024-03-06T14:59:49;9.27;;;3.20;;
5867;SDS011;2960;49.142;7.768;2024-03-06T15:02:16;9.63;;;3.47;;
5867;SDS011;2960;49.142;7.768;2024-03-06T15:04:45;10.17;;;3.57;;
5867;SDS011;2960;49.142;7.768;2024-03-06T15:07:12;10.83;;;3.50;;
5867;SDS011;2960;49.142;7.768;2024-03-06T15:09:39;9.33;;;3.27;;
5867;SDS011;2960;49.142;7.768;2024-03-06T15:12:07;9.43;;;3.40;;
5867;SDS011;2960;49.142;7.768;2024-03-06T15:14:34;10.10;;;3.40;;
5867;SDS011;2960;49.142;7.768;2024-03-06T15:17:01;9.30;;;3.27;;
5867;SDS011;2960;49.142;7.768;2024-03-06T15:19:29;9.60;;;3.27;;
5867;SDS011;2960;49.142;7.768;2024-03-06T15:21:58;9.30;;;3.17;;
5867;SDS011;2960;49.142;7.768;2024-03-06T15:24:28;9.00;;;3.13;;